createdAt,value
2018-03-23T00:01:38.849Z,20.77
2018-03-23T00:04:08.327Z,20.30
2018-03-23T00:06:37.808Z,19.20
2018-03-23T00:09:06.978Z,21.20
2018-03-23T00:11:36.828Z,21.20
2018-03-23T00:14:06.287Z,21.40
2018-03-23T00:16:36.147Z,19.83
2018-03-23T00:19:05.620Z,19.40
2018-03-23T00:21:35.075Z,20.07
2018-03-23T00:24:04.510Z,20.87
2018-03-23T00:26:33.964Z,22.00
2018-03-23T00:29:03.096Z,19.27
2018-03-23T00:31:32.527Z,21.67
2018-03-23T00:34:02.384Z,19.73
2018-03-23T00:36:31.843Z,21.77
2018-03-23T00:39:01.682Z,20.13
2018-03-23T00:41:31.130Z,20.30
2018-03-23T00:44:00.580Z,22.77
2018-03-23T00:46:30.028Z,21.80
2018-03-23T00:48:59.694Z,20.70
2018-03-23T00:51:29.144Z,22.83
2018-03-23T00:53:58.603Z,19.63
2018-03-23T00:56:28.058Z,21.23
2018-03-23T00:58:57.510Z,21.13
2018-03-23T01:01:26.944Z,19.80
2018-03-23T01:03:56.192Z,20.40
2018-03-23T01:06:26.044Z,22.33
2018-03-23T01:08:56.066Z,21.30
2018-03-23T01:11:25.519Z,23.10
2018-03-23T01:13:54.949Z,20.40
2018-03-23T01:16:24.406Z,22.00
2018-03-23T01:18:54.051Z,22.40
2018-03-23T01:21:23.894Z,20.27
2018-03-23T01:23:53.342Z,21.47
2018-03-23T01:26:22.786Z,21.77
2018-03-23T01:28:52.238Z,21.43
2018-03-23T01:31:21.716Z,21.03
2018-03-23T01:33:51.175Z,21.97
2018-03-23T01:36:20.616Z,21.43
2018-03-23T01:38:50.103Z,18.80
2018-03-23T01:41:19.957Z,20.67
2018-03-23T01:43:49.214Z,21.03
2018-03-23T01:46:19.076Z,22.03
2018-03-23T01:48:48.743Z,19.63
2018-03-23T01:51:18.188Z,20.00
2018-03-23T01:53:47.642Z,21.63
2018-03-23T01:56:17.490Z,21.70
2018-03-23T01:58:46.604Z,23.33
2018-03-23T02:01:16.057Z,19.83
2018-03-23T02:03:45.918Z,20.10
2018-03-23T02:06:15.366Z,20.00
2018-03-23T02:08:45.218Z,20.70
2018-03-23T02:11:14.676Z,18.87
2018-03-23T02:13:44.133Z,20.93
2018-03-23T02:16:13.584Z,19.57
2018-03-23T02:18:43.019Z,20.80
2018-03-23T02:21:12.454Z,20.70
2018-03-23T02:23:41.930Z,21.37
2018-03-23T02:26:11.953Z,19.43
2018-03-23T02:28:41.404Z,19.43
2018-03-23T02:31:10.658Z,19.10
2018-03-23T02:33:40.102Z,22.80
2018-03-23T02:36:09.578Z,19.90
2018-03-23T02:38:39.212Z,21.10
2018-03-23T02:41:08.330Z,21.30
2018-03-23T02:43:37.791Z,23.87
2018-03-23T02:46:07.444Z,21.63
2018-03-23T02:48:36.892Z,21.70
2018-03-23T02:51:06.342Z,20.83
2018-03-23T02:53:35.790Z,21.03
2018-03-23T02:56:05.129Z,20.53
2018-03-23T02:58:34.590Z,20.20
2018-03-23T03:01:03.864Z,21.70
2018-03-23T03:03:33.316Z,19.60
2018-03-23T03:06:02.792Z,21.53
2018-03-23T03:08:32.644Z,25.87
2018-03-23T03:11:02.090Z,20.40
2018-03-23T03:13:31.549Z,21.07
2018-03-23T03:16:00.980Z,19.77
2018-03-23T03:18:30.256Z,21.40
2018-03-23T03:20:59.702Z,20.03
2018-03-23T03:23:29.146Z,22.50
2018-03-23T03:25:58.617Z,20.87
2018-03-23T03:28:28.067Z,19.27
2018-03-23T03:30:57.531Z,19.80
2018-03-23T03:33:27.385Z,19.87
2018-03-23T03:35:56.848Z,21.07
2018-03-23T03:38:26.485Z,20.97
2018-03-23T03:40:56.167Z,20.33
2018-03-23T03:43:26.019Z,21.70
2018-03-23T03:45:55.472Z,22.47
2018-03-23T03:48:24.932Z,20.50
2018-03-23T03:50:54.381Z,22.63
2018-03-23T03:53:23.834Z,21.77
2018-03-23T03:55:53.303Z,21.20
2018-03-23T03:58:23.140Z,22.10
2018-03-23T04:00:52.597Z,22.40
2018-03-23T04:03:22.055Z,20.50
2018-03-23T04:05:51.509Z,22.00
2018-03-23T04:08:20.954Z,21.80
2018-03-23T04:10:50.406Z,20.17
2018-03-23T04:13:19.863Z,23.50
2018-03-23T04:15:49.308Z,20.77
2018-03-23T04:18:18.755Z,20.47
2018-03-23T04:20:48.602Z,21.07
2018-03-23T04:23:18.067Z,21.20
2018-03-23T04:25:47.913Z,21.30
2018-03-23T04:28:17.363Z,20.70
2018-03-23T04:30:46.829Z,21.50
2018-03-23T04:33:16.339Z,21.63
2018-03-23T04:35:45.777Z,23.47
2018-03-23T04:38:15.261Z,19.13
2018-03-23T04:40:44.739Z,19.53
2018-03-23T04:43:14.177Z,21.37
2018-03-23T04:45:43.637Z,22.80
2018-03-23T04:48:13.481Z,21.00
2018-03-23T04:50:42.923Z,21.33
2018-03-23T04:53:12.396Z,23.23
2018-03-23T04:55:41.836Z,22.30
2018-03-23T04:58:11.295Z,22.00
2018-03-23T05:00:40.769Z,21.77
2018-03-23T05:03:10.610Z,24.23
2018-03-23T05:05:40.063Z,23.17
2018-03-23T05:08:09.523Z,23.13
2018-03-23T05:10:38.985Z,22.13
2018-03-23T05:13:08.852Z,20.90
2018-03-23T05:15:38.507Z,21.80
2018-03-23T05:18:08.673Z,23.17
2018-03-23T05:20:38.168Z,21.10
2018-03-23T05:23:07.621Z,21.23
2018-03-23T05:25:37.099Z,20.97
2018-03-23T05:28:06.519Z,22.60
2018-03-23T05:30:35.987Z,23.93
2018-03-23T05:33:05.437Z,20.33
2018-03-23T05:35:34.913Z,22.53
2018-03-23T05:38:04.367Z,22.57
2018-03-23T05:40:34.208Z,23.37
2018-03-23T05:43:03.659Z,24.23
2018-03-23T05:45:33.094Z,25.20
2018-03-23T05:48:02.571Z,24.93
2018-03-23T05:50:32.009Z,22.50
2018-03-23T05:53:03.154Z,26.67
2018-03-23T05:55:32.599Z,21.47
2018-03-23T05:58:02.047Z,22.77
2018-03-23T06:00:32.280Z,21.17
2018-03-23T06:03:01.923Z,24.00
2018-03-23T06:05:31.387Z,22.03
2018-03-23T06:08:01.057Z,23.63
2018-03-23T06:10:30.505Z,22.03
2018-03-23T06:13:00.376Z,24.87
2018-03-23T06:15:29.829Z,20.67
2018-03-23T06:18:00.232Z,23.50
2018-03-23T06:20:29.933Z,32.23
2018-03-23T06:22:59.391Z,25.30
2018-03-23T06:25:28.838Z,29.57
2018-03-23T06:27:58.299Z,23.00
2018-03-23T06:30:27.682Z,21.83
2018-03-23T06:32:57.145Z,22.13
2018-03-23T06:35:26.795Z,20.30
2018-03-23T06:37:56.631Z,20.67
2018-03-23T06:40:26.105Z,21.33
2018-03-23T06:42:56.520Z,21.60
2018-03-23T06:45:25.983Z,22.70
2018-03-23T06:47:55.441Z,21.37
2018-03-23T06:50:25.284Z,19.23
2018-03-23T06:52:54.735Z,19.67
2018-03-23T06:55:24.183Z,20.27
2018-03-23T06:57:53.443Z,19.40
2018-03-23T07:00:22.909Z,19.37
2018-03-23T07:02:52.383Z,19.90
2018-03-23T07:05:22.229Z,20.70
2018-03-23T07:07:51.671Z,18.47
2018-03-23T07:10:21.113Z,19.60
2018-03-23T07:12:50.615Z,19.27
2018-03-23T07:15:20.058Z,20.53
2018-03-23T07:17:49.504Z,19.13
2018-03-23T07:20:19.388Z,18.87
2018-03-23T07:22:48.565Z,21.70
2018-03-23T07:25:17.836Z,17.57
2018-03-23T07:27:47.300Z,18.70
2018-03-23T07:30:16.935Z,18.83
2018-03-23T07:32:46.768Z,17.23
2018-03-23T07:35:16.215Z,19.13
2018-03-23T07:37:45.707Z,19.50
2018-03-23T07:40:15.703Z,20.33
2018-03-23T07:42:45.186Z,19.03
2018-03-23T07:45:15.023Z,20.97
2018-03-23T07:47:44.675Z,18.50
2018-03-23T07:50:14.145Z,17.03
2018-03-23T07:52:43.605Z,17.27
2018-03-23T07:55:13.443Z,18.00
2018-03-23T07:57:43.125Z,20.30
2018-03-23T08:00:12.778Z,18.23
2018-03-23T08:02:42.239Z,17.73
2018-03-23T08:05:12.103Z,18.70
2018-03-23T08:07:41.767Z,18.43
2018-03-23T08:10:11.620Z,19.93
2018-03-23T08:12:41.094Z,19.33
2018-03-23T08:15:11.238Z,21.10
2018-03-23T08:17:40.683Z,18.53
2018-03-23T08:20:10.123Z,18.53
2018-03-23T08:22:39.583Z,19.13
2018-03-23T08:25:09.257Z,19.07
2018-03-23T08:27:38.699Z,19.67
2018-03-23T08:30:08.156Z,19.70
2018-03-23T08:32:37.594Z,19.63
2018-03-23T08:35:07.073Z,19.67
2018-03-23T08:37:36.515Z,19.63
2018-03-23T08:40:05.395Z,19.63
2018-03-23T08:42:34.868Z,19.77
2018-03-23T08:45:03.809Z,20.43
2018-03-23T08:47:34.137Z,19.53
2018-03-23T08:50:03.609Z,19.97
2018-03-23T08:52:33.075Z,19.53
2018-03-23T08:55:02.795Z,21.03
2018-03-23T08:57:33.623Z,23.23
2018-03-23T09:00:03.476Z,19.13
2018-03-23T09:02:32.935Z,19.10
2018-03-23T09:05:02.781Z,18.37
2018-03-23T09:07:32.235Z,18.63
2018-03-23T09:10:01.425Z,17.97
2018-03-23T09:12:30.877Z,20.40
2018-03-23T09:15:00.359Z,20.80
2018-03-23T09:17:30.207Z,19.73
2018-03-23T09:19:59.665Z,18.77
2018-03-23T09:22:29.147Z,15.57
2018-03-23T09:24:58.592Z,18.30
2018-03-23T09:27:28.628Z,15.97
2018-03-23T09:29:58.087Z,16.30
2018-03-23T09:32:27.544Z,16.60
2018-03-23T09:34:56.992Z,16.40
2018-03-23T09:37:26.464Z,16.80
2018-03-23T09:39:55.750Z,15.93
2018-03-23T09:42:25.194Z,17.00
2018-03-23T09:44:54.654Z,17.13
2018-03-23T09:47:24.110Z,19.40
2018-03-23T09:49:53.557Z,16.77
2018-03-23T09:52:23.258Z,16.47
2018-03-23T09:54:53.110Z,16.87
2018-03-23T09:57:22.585Z,15.87
2018-03-23T09:59:52.219Z,13.20
2018-03-23T10:02:21.676Z,13.30
2018-03-23T10:04:51.132Z,15.70
2018-03-23T10:07:20.598Z,14.07
2018-03-23T10:09:50.316Z,13.97
2018-03-23T10:12:19.924Z,14.97
2018-03-23T10:14:49.601Z,12.47
2018-03-23T10:17:19.070Z,15.33
2018-03-23T10:19:48.532Z,12.73
2018-03-23T10:22:18.385Z,12.63
2018-03-23T10:24:47.836Z,13.60
2018-03-23T10:27:17.285Z,11.40
2018-03-23T10:29:46.756Z,11.37
2018-03-23T10:32:16.608Z,10.40
2018-03-23T10:34:46.048Z,10.10
2018-03-23T10:37:15.300Z,11.10
2018-03-23T10:39:44.743Z,10.40
2018-03-23T10:42:14.218Z,12.43
2018-03-23T10:44:43.892Z,11.57
2018-03-23T10:47:13.771Z,12.40
2018-03-23T10:49:43.216Z,11.83
2018-03-23T10:52:13.069Z,11.20
2018-03-23T10:54:42.524Z,14.40
2018-03-23T10:57:11.989Z,10.40
2018-03-23T10:59:41.446Z,10.63
2018-03-23T11:02:12.896Z,11.50
2018-03-23T11:04:42.724Z,9.73
2018-03-23T11:07:12.759Z,9.97
2018-03-23T11:09:42.192Z,10.00
2018-03-23T11:12:11.700Z,10.53
2018-03-23T11:14:41.152Z,10.00
2018-03-23T11:17:10.598Z,10.83
2018-03-23T11:19:40.044Z,10.07
2018-03-23T11:22:09.895Z,11.00
2018-03-23T11:24:39.331Z,11.13
2018-03-23T11:27:08.448Z,10.37
2018-03-23T11:29:37.926Z,10.20
2018-03-23T11:32:07.390Z,9.77
2018-03-23T11:34:36.841Z,8.73
2018-03-23T11:37:06.285Z,9.07
2018-03-23T11:39:35.874Z,8.47
2018-03-23T11:42:05.722Z,8.60
2018-03-23T11:44:35.184Z,8.77
2018-03-23T11:47:04.625Z,9.57
2018-03-23T11:49:33.876Z,12.67
2018-03-23T11:52:03.350Z,11.80
2018-03-23T11:54:32.795Z,13.90
2018-03-23T11:57:02.267Z,12.50
2018-03-23T11:59:31.754Z,12.97
2018-03-23T12:02:00.923Z,12.17
2018-03-23T12:04:30.536Z,12.23
2018-03-23T12:07:00.402Z,11.67
2018-03-23T12:09:29.840Z,11.83
2018-03-23T12:11:59.704Z,11.17
2018-03-23T12:14:29.222Z,12.07
2018-03-23T12:16:59.214Z,12.60
2018-03-23T12:19:28.674Z,12.30
2018-03-23T12:21:58.127Z,11.80
2018-03-23T12:24:27.588Z,11.37
2018-03-23T12:26:57.439Z,11.50
2018-03-23T12:29:26.876Z,11.30
2018-03-23T12:31:56.336Z,10.37
2018-03-23T12:34:26.163Z,10.53
2018-03-23T12:36:55.608Z,10.87
2018-03-23T12:39:25.058Z,9.20
2018-03-23T12:41:54.266Z,10.20
2018-03-23T12:44:23.708Z,10.47
2018-03-23T12:46:53.150Z,12.00
2018-03-23T12:49:22.990Z,10.73
2018-03-23T12:51:52.424Z,11.73
2018-03-23T12:54:21.918Z,11.20
2018-03-23T12:56:51.366Z,10.00
2018-03-23T12:59:20.817Z,10.53
2018-03-23T13:01:50.266Z,10.53
2018-03-23T13:04:19.697Z,9.97
2018-03-23T13:06:49.774Z,10.67
2018-03-23T13:09:19.258Z,9.63
2018-03-23T13:11:48.716Z,10.23
2018-03-23T13:14:18.567Z,10.30
2018-03-23T13:16:48.022Z,10.90
2018-03-23T13:19:17.478Z,12.43
2018-03-23T13:21:46.924Z,10.83
2018-03-23T13:24:16.388Z,10.13
2018-03-23T13:26:45.820Z,9.43
2018-03-23T13:29:15.254Z,11.60
2018-03-23T13:31:45.100Z,9.53
2018-03-23T13:34:14.365Z,10.37
2018-03-23T13:36:44.226Z,10.47
2018-03-23T13:39:13.516Z,10.60
2018-03-23T13:41:42.976Z,10.20
2018-03-23T13:44:12.414Z,10.23
2018-03-23T13:46:41.884Z,11.50
2018-03-23T13:49:11.525Z,10.57
2018-03-23T13:51:40.983Z,9.93
2018-03-23T13:54:10.452Z,9.67
2018-03-23T13:56:39.896Z,10.10
2018-03-23T13:59:15.082Z,10.23
2018-03-23T14:01:44.609Z,10.00
2018-03-23T14:04:14.054Z,11.87
2018-03-23T14:06:43.314Z,10.40
2018-03-23T14:09:12.759Z,9.67
2018-03-23T14:11:42.080Z,11.90
2018-03-23T14:14:11.676Z,10.07
2018-03-23T14:16:41.508Z,9.43
2018-03-23T14:19:11.348Z,9.40
2018-03-23T14:21:40.788Z,10.10
2018-03-23T14:24:10.232Z,9.47
2018-03-23T14:26:40.074Z,9.73
2018-03-23T14:29:09.530Z,8.93
2018-03-23T14:31:39.395Z,9.13
2018-03-23T14:34:08.506Z,9.97
2018-03-23T14:36:38.084Z,9.60
2018-03-23T14:39:07.524Z,10.50
2018-03-23T14:41:36.982Z,9.70
2018-03-23T14:44:05.854Z,9.10
2018-03-23T14:46:35.366Z,9.83
2018-03-23T14:49:05.400Z,9.73
2018-03-23T14:51:34.856Z,8.93
2018-03-23T14:54:04.306Z,10.03
2018-03-23T14:56:33.956Z,8.53
2018-03-23T14:59:08.962Z,7.97
2018-03-23T15:01:38.416Z,8.13
2018-03-23T15:04:07.856Z,8.37
2018-03-23T15:06:37.393Z,10.20
2018-03-23T15:09:06.186Z,7.60
2018-03-23T15:11:35.619Z,8.37
2018-03-23T15:14:15.772Z,8.30
2018-03-23T15:16:44.994Z,9.77
2018-03-23T15:19:14.524Z,7.13
2018-03-23T15:21:44.026Z,9.63
2018-03-23T15:24:13.626Z,6.97
2018-03-23T15:26:43.095Z,7.47
2018-03-23T15:29:12.568Z,7.33
2018-03-23T15:31:42.088Z,7.50
2018-03-23T15:34:11.627Z,7.03
2018-03-23T15:36:41.562Z,8.30
2018-03-23T15:39:10.793Z,8.47
2018-03-23T15:41:40.230Z,7.10
2018-03-23T15:44:09.720Z,7.50
2018-03-23T15:46:39.214Z,9.60
2018-03-23T15:49:08.953Z,6.93
2018-03-23T15:51:38.820Z,7.57
2018-03-23T15:54:08.411Z,6.97
2018-03-23T15:56:37.856Z,9.43
2018-03-23T15:59:07.387Z,7.10
2018-03-23T16:01:37.230Z,7.00
2018-03-23T16:04:06.751Z,8.10
2018-03-23T16:06:36.245Z,7.13
2018-03-23T16:09:05.990Z,8.03
2018-03-23T16:11:35.512Z,6.40
2018-03-23T16:14:05.094Z,7.90
2018-03-23T16:16:34.747Z,8.00
2018-03-23T16:19:04.776Z,7.50
2018-03-23T16:21:34.357Z,7.40
2018-03-23T16:24:03.990Z,7.23
2018-03-23T16:26:33.565Z,7.60
2018-03-23T16:29:03.002Z,7.97
2018-03-23T16:31:32.835Z,8.67
2018-03-23T16:34:02.663Z,7.57
2018-03-23T16:36:32.187Z,7.80
2018-03-23T16:39:01.653Z,8.97
2018-03-23T16:41:31.719Z,7.30
2018-03-23T16:44:01.293Z,9.43
2018-03-23T16:46:30.785Z,8.30
2018-03-23T16:49:00.280Z,8.30
2018-03-23T16:51:29.974Z,12.30
2018-03-23T16:54:00.075Z,9.43
2018-03-23T16:56:30.154Z,9.07
2018-03-23T16:58:59.685Z,9.37
2018-03-23T17:01:29.277Z,8.83
2018-03-23T17:03:58.973Z,9.63
2018-03-23T17:06:28.680Z,9.30
2018-03-23T17:08:58.185Z,11.47
2018-03-23T17:11:27.655Z,9.53
2018-03-23T17:13:57.229Z,10.27
2018-03-23T17:16:26.711Z,11.07
2018-03-23T17:18:56.343Z,10.63
2018-03-23T17:21:25.976Z,10.37
2018-03-23T17:23:55.919Z,11.33
2018-03-23T17:26:26.571Z,10.63
2018-03-23T17:28:56.048Z,10.77
2018-03-23T17:31:26.098Z,10.67
2018-03-23T17:33:55.623Z,11.13
2018-03-23T17:36:25.478Z,10.60
2018-03-23T17:38:55.218Z,11.30
2018-03-23T17:41:25.525Z,11.20
2018-03-23T17:43:55.038Z,11.20
2018-03-23T17:46:25.137Z,13.57
2018-03-23T17:48:54.737Z,11.67
2018-03-23T17:51:24.085Z,11.80
2018-03-23T17:53:53.642Z,11.13
2018-03-23T17:56:23.168Z,11.77
2018-03-23T17:58:52.577Z,12.37
2018-03-23T18:01:22.339Z,12.60
2018-03-23T18:03:51.925Z,12.50
2018-03-23T18:06:21.746Z,12.77
2018-03-23T18:08:51.534Z,14.43
2018-03-23T18:11:21.343Z,12.23
2018-03-23T18:13:51.137Z,14.47
2018-03-23T18:16:20.721Z,12.37
2018-03-23T18:18:50.535Z,13.00
2018-03-23T18:21:20.717Z,14.07
2018-03-23T18:23:50.541Z,12.57
2018-03-23T18:26:20.161Z,13.53
2018-03-23T18:28:50.142Z,12.70
2018-03-23T18:31:19.795Z,14.10
2018-03-23T18:33:49.347Z,14.23
2018-03-23T18:36:20.303Z,15.63
2018-03-23T18:38:49.963Z,14.20
2018-03-23T18:41:19.783Z,15.37
2018-03-23T18:43:50.927Z,12.60
2018-03-23T18:46:20.937Z,16.07
2018-03-23T18:48:50.773Z,12.90
2018-03-23T18:51:20.993Z,12.67
2018-03-23T18:53:50.873Z,14.60
2018-03-23T18:56:20.959Z,13.67
2018-03-23T18:58:50.511Z,15.67
2018-03-23T19:01:20.262Z,13.80
2018-03-23T19:03:50.487Z,14.67
2018-03-23T19:06:20.113Z,17.40
2018-03-23T19:08:49.943Z,14.00
2018-03-23T19:11:19.586Z,14.60
2018-03-23T19:13:49.439Z,14.03
2018-03-23T19:16:19.275Z,14.83
2018-03-23T19:18:48.915Z,16.17
2018-03-23T19:21:18.550Z,14.70
2018-03-23T19:23:48.637Z,14.83
2018-03-23T19:26:18.905Z,14.73
2018-03-23T19:28:48.766Z,14.83
2018-03-23T19:31:19.221Z,14.27
2018-03-23T19:33:49.403Z,15.30
2018-03-23T19:36:19.069Z,13.63
2018-03-23T19:38:49.353Z,13.93
2018-03-23T19:41:19.409Z,14.60
2018-03-23T19:43:49.667Z,16.33
2018-03-23T19:46:19.175Z,17.20
2018-03-23T19:48:48.940Z,17.90
2018-03-23T19:51:18.720Z,20.30
2018-03-23T19:53:48.665Z,19.37
2018-03-23T19:56:17.861Z,20.43
2018-03-23T19:58:47.363Z,14.97
2018-03-23T20:01:17.123Z,15.20
2018-03-23T20:03:46.535Z,13.63
2018-03-23T20:06:16.153Z,14.87
2018-03-23T20:08:45.937Z,14.83
2018-03-23T20:11:15.589Z,15.83
2018-03-23T20:16:45.057Z,16.67
2018-03-23T20:19:14.933Z,14.87
2018-03-23T20:21:44.601Z,15.43
2018-03-23T20:24:19.437Z,15.10
2018-03-23T20:26:48.485Z,16.77
2018-03-23T20:29:18.419Z,15.63
2018-03-23T20:31:53.411Z,15.23
2018-03-23T20:34:22.867Z,16.53
2018-03-23T20:36:52.341Z,16.83
2018-03-23T20:39:21.819Z,16.93
2018-03-23T20:41:51.281Z,19.13
2018-03-23T20:44:20.735Z,16.13
2018-03-23T20:46:50.205Z,15.17
2018-03-23T20:49:19.701Z,19.10
2018-03-23T20:51:49.175Z,16.00
2018-03-23T20:54:18.633Z,15.77
2018-03-23T20:56:48.132Z,16.97
2018-03-23T20:59:17.397Z,16.47
2018-03-23T21:01:47.451Z,16.83
2018-03-23T21:04:16.961Z,16.80
2018-03-23T21:06:46.432Z,16.47
2018-03-23T21:09:16.307Z,17.87
2018-03-23T21:11:46.007Z,20.27
2018-03-23T21:14:15.349Z,21.27
2018-03-23T21:16:45.240Z,19.23
2018-03-23T21:19:14.912Z,20.70
2018-03-23T21:21:44.384Z,19.70
2018-03-23T21:24:14.251Z,19.37
2018-03-23T21:26:44.184Z,18.27
2018-03-23T21:29:13.710Z,18.47
2018-03-23T21:35:19.395Z,18.73
2018-03-23T21:37:49.550Z,20.23
2018-03-23T21:40:19.323Z,21.93
2018-03-23T21:42:49.076Z,23.63
2018-03-23T21:45:18.744Z,21.07
2018-03-23T21:47:48.938Z,20.07
2018-03-23T21:50:18.844Z,22.30
2018-03-23T21:52:48.476Z,22.97
2018-03-23T21:55:20.391Z,24.93
2018-03-23T21:57:55.573Z,25.03
2018-03-23T22:00:30.798Z,22.73
2018-03-23T22:03:00.664Z,24.23
2018-03-23T22:05:30.192Z,25.07
2018-03-23T22:07:59.789Z,26.43
2018-03-23T22:10:29.350Z,25.67
2018-03-23T22:12:58.836Z,25.70
2018-03-23T22:15:28.290Z,29.83
2018-03-23T22:17:57.758Z,28.77
2018-03-23T22:20:27.241Z,27.90
2018-03-23T22:22:56.706Z,26.60
2018-03-23T22:25:26.186Z,26.23
2018-03-23T22:27:55.892Z,27.43
2018-03-23T22:30:25.773Z,28.37
2018-03-23T22:32:55.620Z,27.67
2018-03-23T22:35:25.516Z,27.37
2018-03-23T22:37:54.992Z,30.90
2018-03-23T22:40:25.226Z,29.83
2018-03-23T22:42:54.680Z,32.80
2018-03-23T22:45:24.315Z,29.00
2018-03-23T22:47:53.828Z,25.23
2018-03-23T22:50:23.279Z,27.67
2018-03-23T22:52:52.728Z,25.07
2018-03-23T22:55:22.187Z,22.67
2018-03-23T22:57:51.646Z,25.13
2018-03-23T23:00:20.552Z,24.10
2018-03-23T23:02:50.012Z,24.77
2018-03-23T23:05:19.862Z,24.03
2018-03-23T23:07:49.340Z,26.10
2018-03-23T23:10:20.069Z,28.10
2018-03-23T23:12:49.932Z,28.73
2018-03-23T23:15:19.380Z,29.30
2018-03-23T23:17:49.240Z,28.37
2018-03-23T23:20:18.692Z,30.40
2018-03-23T23:22:48.562Z,28.43
2018-03-23T23:25:18.034Z,30.53
2018-03-23T23:27:47.494Z,26.63
2018-03-23T23:30:16.945Z,30.07
2018-03-23T23:32:46.414Z,27.10
2018-03-23T23:35:15.872Z,27.77
2018-03-23T23:37:45.364Z,28.03
2018-03-23T23:40:14.840Z,30.13
2018-03-23T23:42:44.684Z,27.43
2018-03-23T23:45:14.144Z,27.80
2018-03-23T23:47:43.600Z,27.63
2018-03-23T23:50:13.046Z,27.63
2018-03-23T23:52:42.528Z,29.00
2018-03-23T23:55:12.065Z,30.10
2018-03-23T23:57:41.506Z,27.73
